Time;durP1;ratioP1;P1;durP2;ratioP2;P2;SDS_P1;SDS_P2;PMS_P1;PMS_P2;Temp;Humidity;BMP_temperature;BMP_pressure;BME280_temperature;BME280_humidity;BME280_pressure;Samples;Min_cycle;Max_cycle;Signal;HPM_P1;HPM_P2
2023/01/07 00:01:16;;;;;;;9.55;3.97;;;9.40;99.90;;;;;;5071711;28;20786;-73
2023/01/07 00:03:42;;;;;;;8.45;3.50;;;9.40;99.90;;;;;;5074529;28;20055;-72
2023/01/07 00:06:14;;;;;;;9.30;4.13;;;9.50;99.90;;;;;;5069680;28;20140;-73
2023/01/07 00:08:42;;;;;;;8.25;3.47;;;9.50;99.90;;;;;;5073146;28;20036;-73
2023/01/07 00:11:11;;;;;;;10.10;4.60;;;9.50;99.90;;;;;;5070451;28;20044;-73
2023/01/07 00:13:37;;;;;;;11.05;4.10;;;9.50;99.90;;;;;;5071386;28;20119;-73
2023/01/07 00:16:10;;;;;;;9.35;3.83;;;9.50;99.90;;;;;;5074752;28;20543;-73
2023/01/07 00:18:36;;;;;;;9.75;4.40;;;9.60;99.90;;;;;;5058631;28;20036;-72
2023/01/07 00:21:05;;;;;;;6.93;3.42;;;9.60;99.90;;;;;;5056385;28;20051;-73
2023/01/07 00:23:32;;;;;;;9.52;4.03;;;9.60;99.90;;;;;;5072459;28;20094;-72
2023/01/07 00:26:22;;;;;;;7.63;3.38;;;9.60;99.90;;;;;;5073737;28;20046;-73
2023/01/07 00:28:49;;;;;;;10.02;3.90;;;9.70;99.90;;;;;;5056544;28;20064;-73
2023/01/07 00:31:20;;;;;;;9.13;3.20;;;9.60;99.90;;;;;;5072088;28;20035;-72
2023/01/07 00:36:29;;;;;;;7.53;3.42;;;9.70;99.90;;;;;;5072749;28;20052;-72
2023/01/07 00:39:05;;;;;;;8.23;3.72;;;9.70;99.90;;;;;;5074537;28;20032;-72
2023/01/07 00:41:31;;;;;;;7.10;3.33;;;9.70;99.90;;;;;;5075551;28;20735;-73
2023/01/07 00:43:56;;;;;;;9.13;3.72;;;9.80;99.90;;;;;;5088480;28;20036;-72
2023/01/07 00:46:22;;;;;;;8.63;4.03;;;9.80;99.90;;;;;;5072797;28;20032;-72
2023/01/07 00:48:48;;;;;;;8.07;3.47;;;9.80;99.90;;;;;;5074111;28;20036;-72
2023/01/07 00:51:15;;;;;;;7.88;3.40;;;9.80;99.90;;;;;;5075164;28;20390;-73
2023/01/07 00:53:41;;;;;;;7.30;3.50;;;9.80;99.90;;;;;;5073307;28;20049;-72
2023/01/07 00:56:09;;;;;;;10.15;4.13;;;9.80;99.90;;;;;;5076545;28;20401;-72
2023/01/07 00:58:34;;;;;;;8.25;3.35;;;9.80;99.90;;;;;;5072238;28;20064;-72
2023/01/07 01:01:00;;;;;;;10.05;3.90;;;9.90;99.90;;;;;;5074940;28;20070;-73
2023/01/07 01:03:28;;;;;;;11.15;4.78;;;9.90;99.90;;;;;;5068211;28;20032;-72
2023/01/07 01:05:54;;;;;;;9.32;4.35;;;9.90;99.90;;;;;;5062262;28;20052;-73
2023/01/07 01:08:21;;;;;;;9.40;4.10;;;9.90;99.90;;;;;;5070003;28;20043;-72
2023/01/07 01:10:47;;;;;;;9.35;3.97;;;9.90;99.90;;;;;;5072704;28;20118;-72
2023/01/07 01:13:14;;;;;;;9.02;3.95;;;10.00;99.90;;;;;;5075540;28;20604;-72
2023/01/07 01:15:45;;;;;;;9.88;4.00;;;9.90;99.90;;;;;;5077763;28;20028;-72
2023/01/07 01:18:11;;;;;;;7.93;3.60;;;10.00;99.90;;;;;;5072727;28;20052;-72
2023/01/07 01:20:37;;;;;;;7.68;3.38;;;10.00;99.90;;;;;;5076333;28;20032;-73
2023/01/07 01:23:03;;;;;;;8.57;3.58;;;10.00;99.90;;;;;;5061657;28;21364;-72
2023/01/07 01:25:29;;;;;;;9.05;4.13;;;10.00;99.90;;;;;;5077795;28;20047;-72
2023/01/07 01:27:54;;;;;;;10.32;4.55;;;10.00;99.90;;;;;;5078190;28;20401;-73
2023/01/07 01:30:20;;;;;;;8.10;4.20;;;10.00;99.90;;;;;;5077252;28;20052;-73
2023/01/07 01:32:45;;;;;;;8.93;4.28;;;10.00;99.90;;;;;;5073388;28;20040;-72
2023/01/07 01:35:11;;;;;;;9.32;4.05;;;10.10;99.90;;;;;;5077483;28;20114;-72
2023/01/07 01:37:36;;;;;;;8.00;3.70;;;10.10;99.90;;;;;;5072667;28;20186;-72
2023/01/07 01:40:04;;;;;;;8.95;3.75;;;10.10;99.90;;;;;;5056639;28;20141;-73
2023/01/07 01:42:30;;;;;;;8.13;3.72;;;10.10;99.90;;;;;;5074893;28;20036;-72
2023/01/07 01:45:00;;;;;;;9.27;3.78;;;10.10;99.90;;;;;;5075924;28;20052;-73
2023/01/07 01:47:57;;;;;;;8.27;3.80;;;10.10;99.90;;;;;;5076536;28;20119;-72
2023/01/07 01:50:27;;;;;;;10.35;4.47;;;10.10;99.90;;;;;;5063055;28;20043;-72
2023/01/07 01:53:00;;;;;;;7.65;3.63;;;10.10;99.90;;;;;;5078047;28;20072;-72
2023/01/07 01:55:31;;;;;;;10.48;4.70;;;10.20;99.90;;;;;;5057044;28;20036;-72
2023/01/07 01:58:01;;;;;;;9.35;4.03;;;10.10;99.90;;;;;;5071523;28;20532;-72
2023/01/07 02:00:27;;;;;;;8.55;4.28;;;10.20;99.90;;;;;;5074532;28;20090;-72
2023/01/07 02:02:56;;;;;;;11.00;4.60;;;10.20;99.90;;;;;;5059210;28;20141;-72
2023/01/07 02:05:27;;;;;;;10.70;4.60;;;10.20;99.90;;;;;;5057878;28;20446;-73
2023/01/07 02:07:53;;;;;;;8.05;4.07;;;10.20;99.90;;;;;;5073693;28;20497;-72
2023/01/07 02:10:23;;;;;;;10.38;3.97;;;10.20;99.90;;;;;;5062248;28;20082;-72
2023/01/07 02:13:11;;;;;;;9.90;4.18;;;10.20;99.90;;;;;;5056389;28;20119;-72
2023/01/07 02:15:40;;;;;;;9.57;4.25;;;10.30;99.90;;;;;;5075400;28;20546;-73
2023/01/07 02:18:43;;;;;;;9.40;4.30;;;10.30;99.90;;;;;;5063361;28;20388;-72
2023/01/07 02:21:27;;;;;;;10.05;4.75;;;10.20;99.90;;;;;;5076725;28;21880;-73
2023/01/07 02:24:31;;;;;;;9.38;4.03;;;10.30;99.90;;;;;;5057366;28;20134;-73
2023/01/07 02:27:26;;;;;;;9.93;4.18;;;10.20;99.90;;;;;;5061181;28;20040;-72
2023/01/07 02:30:33;;;;;;;9.65;3.83;;;10.20;99.90;;;;;;5081374;28;20040;-72
2023/01/07 02:33:17;;;;;;;11.15;4.43;;;10.30;99.90;;;;;;5057202;28;20132;-73
2023/01/07 02:35:54;;;;;;;7.70;4.30;;;10.30;99.90;;;;;;5076875;28;20040;-72
2023/01/07 02:38:31;;;;;;;8.27;4.32;;;10.30;99.90;;;;;;5073610;28;20044;-72
2023/01/07 02:41:16;;;;;;;10.15;4.80;;;10.40;99.90;;;;;;5079306;28;20040;-72
2023/01/07 02:44:06;;;;;;;8.60;4.13;;;10.30;99.90;;;;;;5077739;28;20085;-72
2023/01/07 02:46:43;;;;;;;8.60;3.80;;;10.30;99.90;;;;;;5071885;28;20028;-72
2023/01/07 02:49:10;;;;;;;9.80;4.68;;;10.30;99.90;;;;;;5073588;28;20123;-72
2023/01/07 02:51:38;;;;;;;9.68;4.60;;;10.30;99.90;;;;;;5070938;28;20093;-72
2023/01/07 02:54:09;;;;;;;9.00;4.67;;;10.30;99.90;;;;;;5078088;28;20508;-73
2023/01/07 02:56:35;;;;;;;8.77;4.55;;;10.30;99.90;;;;;;5078450;28;21293;-73
2023/01/07 02:59:18;;;;;;;11.13;4.55;;;10.30;99.90;;;;;;5061002;28;20059;-72
2023/01/07 03:02:16;;;;;;;8.88;4.47;;;10.30;99.90;;;;;;5058271;28;20048;-72
2023/01/07 03:05:00;;;;;;;10.48;4.20;;;10.30;99.90;;;;;;5100106;27;20083;-73
2023/01/07 03:07:31;;;;;;;7.72;4.40;;;10.30;99.90;;;;;;5061614;28;20087;-73
2023/01/07 03:10:17;;;;;;;10.50;4.50;;;10.30;99.90;;;;;;5073836;28;20040;-73
2023/01/07 03:13:15;;;;;;;10.13;4.53;;;10.30;99.90;;;;;;5076261;28;20035;-72
2023/01/07 03:16:04;;;;;;;8.95;4.47;;;10.30;99.90;;;;;;5077279;28;20047;-73
2023/01/07 03:18:33;;;;;;;8.80;4.05;;;10.30;99.90;;;;;;5076382;28;20613;-73
2023/01/07 03:21:06;;;;;;;9.57;4.85;;;10.30;99.90;;;;;;5072228;28;20140;-73
2023/01/07 03:23:34;;;;;;;9.98;4.80;;;10.30;99.90;;;;;;5077444;28;20076;-72
2023/01/07 03:26:03;;;;;;;9.82;4.72;;;10.30;99.90;;;;;;5073326;28;20051;-73
2023/01/07 03:28:36;;;;;;;8.75;3.83;;;10.30;99.90;;;;;;5080570;28;20040;-73
2023/01/07 03:31:04;;;;;;;8.20;3.75;;;10.30;99.90;;;;;;5070740;28;20444;-73
2023/01/07 03:33:40;;;;;;;10.40;4.72;;;10.30;99.90;;;;;;5075049;28;20497;-73
2023/01/07 03:36:09;;;;;;;9.32;4.55;;;10.30;99.90;;;;;;5057585;28;20036;-73
2023/01/07 03:38:36;;;;;;;8.93;4.22;;;10.30;99.90;;;;;;5077050;28;20085;-73
2023/01/07 03:41:02;;;;;;;14.50;4.32;;;10.30;99.90;;;;;;5071407;28;20043;-73
2023/01/07 03:43:27;;;;;;;13.02;5.18;;;10.30;99.90;;;;;;5054100;28;20048;-73
2023/01/07 03:45:56;;;;;;;9.43;3.67;;;10.30;99.90;;;;;;5072146;28;20076;-73
2023/01/07 03:48:22;;;;;;;9.63;3.60;;;10.30;99.90;;;;;;5073888;28;20433;-73
2023/01/07 03:50:47;;;;;;;10.38;4.40;;;10.30;99.90;;;;;;5071715;28;20093;-73
2023/01/07 03:53:13;;;;;;;7.25;3.78;;;10.30;99.90;;;;;;5076626;28;20118;-73
2023/01/07 03:55:39;;;;;;;10.85;4.97;;;10.30;99.90;;;;;;5071618;28;20371;-73
2023/01/07 03:58:04;;;;;;;7.55;3.75;;;10.30;99.90;;;;;;5053887;28;20036;-73
2023/01/07 04:00:30;;;;;;;8.88;4.25;;;10.20;99.90;;;;;;5075612;28;20118;-73
2023/01/07 04:02:55;;;;;;;9.75;3.95;;;10.20;99.90;;;;;;5073264;28;20032;-73
2023/01/07 04:05:21;;;;;;;9.25;4.18;;;10.20;99.90;;;;;;5073508;28;20040;-73
2023/01/07 04:07:46;;;;;;;7.90;3.97;;;10.20;99.90;;;;;;5100662;27;20049;-73
2023/01/07 04:10:12;;;;;;;8.88;4.13;;;10.20;99.90;;;;;;5111524;27;20078;-73
2023/01/07 04:12:37;;;;;;;8.20;4.25;;;10.20;99.90;;;;;;5052004;28;20040;-72
2023/01/07 04:15:04;;;;;;;8.63;3.55;;;10.20;99.90;;;;;;5072775;28;20040;-73
2023/01/07 04:17:29;;;;;;;9.85;4.15;;;10.20;99.90;;;;;;5067574;28;20041;-72
2023/01/07 04:19:55;;;;;;;9.23;3.95;;;10.20;99.90;;;;;;5055303;28;20396;-73
2023/01/07 04:22:20;;;;;;;10.15;3.70;;;10.20;99.90;;;;;;5055011;28;20060;-73
2023/01/07 04:24:46;;;;;;;6.88;3.78;;;10.20;99.90;;;;;;5078637;28;20035;-73
2023/01/07 04:27:12;;;;;;;7.68;3.90;;;10.20;99.90;;;;;;5075455;28;20065;-73
2023/01/07 04:29:37;;;;;;;6.35;3.72;;;10.20;99.90;;;;;;5071369;28;20028;-73
2023/01/07 04:32:03;;;;;;;9.38;4.53;;;10.20;99.90;;;;;;5074075;28;20106;-73
2023/01/07 04:34:29;;;;;;;8.13;3.88;;;10.20;99.90;;;;;;5072181;28;20770;-73
2023/01/07 04:36:54;;;;;;;8.38;3.83;;;10.20;99.90;;;;;;5071955;28;20035;-73
2023/01/07 04:39:20;;;;;;;6.32;3.30;;;10.10;99.90;;;;;;5075461;28;20067;-73
2023/01/07 04:41:45;;;;;;;9.43;4.55;;;10.10;99.90;;;;;;5074690;28;20040;-72
2023/01/07 04:44:11;;;;;;;9.90;3.63;;;10.20;99.90;;;;;;5059758;28;20051;-72
2023/01/07 04:46:37;;;;;;;6.97;3.30;;;10.10;99.90;;;;;;5072083;28;20043;-73
2023/01/07 04:49:02;;;;;;;9.52;3.83;;;10.10;99.90;;;;;;5071924;28;20024;-73
2023/01/07 04:51:28;;;;;;;7.15;3.80;;;10.10;99.90;;;;;;5059737;28;20124;-73
2023/01/07 04:53:56;;;;;;;8.65;4.13;;;10.10;99.90;;;;;;5070150;28;20147;-73
2023/01/07 04:56:21;;;;;;;7.45;3.58;;;10.20;99.90;;;;;;5072785;28;20055;-73
2023/01/07 04:58:47;;;;;;;7.97;3.58;;;10.20;99.90;;;;;;5071713;28;20040;-72
2023/01/07 05:01:13;;;;;;;8.57;4.18;;;10.20;99.90;;;;;;5072041;28;20494;-73
2023/01/07 05:03:38;;;;;;;8.52;3.78;;;10.10;99.90;;;;;;5071553;28;20032;-73
2023/01/07 05:06:04;;;;;;;6.57;3.28;;;10.20;99.90;;;;;;5073095;28;20388;-72
2023/01/07 05:08:30;;;;;;;7.97;3.47;;;10.20;99.90;;;;;;5055133;28;20090;-73
2023/01/07 05:10:55;;;;;;;7.20;3.63;;;10.20;99.90;;;;;;5070648;28;20044;-73
2023/01/07 05:13:22;;;;;;;5.25;2.58;;;10.10;99.90;;;;;;5071911;28;20467;-73
2023/01/07 05:15:48;;;;;;;7.70;3.67;;;10.20;99.90;;;;;;5067642;28;20044;-73
2023/01/07 05:18:14;;;;;;;8.00;3.83;;;10.20;99.90;;;;;;5073523;28;20401;-73
2023/01/07 05:20:40;;;;;;;6.63;3.42;;;10.20;99.90;;;;;;5072846;28;20051;-73
2023/01/07 05:23:06;;;;;;;6.15;3.28;;;10.20;99.90;;;;;;5073341;28;20485;-72
2023/01/07 05:25:33;;;;;;;9.38;3.78;;;10.20;99.90;;;;;;5074838;28;20175;-72
2023/01/07 05:27:59;;;;;;;7.80;3.50;;;10.20;99.90;;;;;;5060430;28;20044;-72
2023/01/07 05:30:24;;;;;;;7.90;2.85;;;10.10;99.90;;;;;;5072871;28;20047;-73
2023/01/07 05:32:50;;;;;;;8.75;3.35;;;10.20;99.90;;;;;;5052916;28;20071;-73
2023/01/07 05:35:15;;;;;;;5.15;2.83;;;10.20;99.90;;;;;;5091310;28;20122;-73
2023/01/07 05:37:41;;;;;;;7.35;3.33;;;10.20;99.90;;;;;;5056301;28;20032;-73
2023/01/07 05:40:07;;;;;;;6.90;2.85;;;10.20;99.90;;;;;;5074120;28;20055;-72
2023/01/07 05:42:33;;;;;;;7.18;3.28;;;10.20;99.90;;;;;;5072759;28;20036;-73
2023/01/07 05:44:59;;;;;;;7.65;3.17;;;10.10;99.90;;;;;;5068432;28;20043;-72
2023/01/07 05:47:24;;;;;;;6.05;3.13;;;10.20;99.90;;;;;;5073849;28;20068;-73
2023/01/07 05:49:50;;;;;;;7.68;3.28;;;10.20;99.90;;;;;;5075040;28;20043;-73
2023/01/07 05:52:16;;;;;;;5.75;3.05;;;10.20;99.90;;;;;;5070925;28;20032;-73
2023/01/07 05:54:41;;;;;;;6.15;3.30;;;10.20;99.90;;;;;;5073832;28;20028;-73
2023/01/07 05:57:07;;;;;;;7.07;3.25;;;10.20;99.90;;;;;;5068696;28;20031;-73
2023/01/07 05:59:33;;;;;;;5.60;2.92;;;10.20;99.90;;;;;;5077525;28;20545;-72
2023/01/07 06:02:00;;;;;;;6.88;2.92;;;10.20;99.90;;;;;;5077216;28;21461;-73
2023/01/07 06:04:26;;;;;;;5.18;2.65;;;10.20;99.90;;;;;;5060863;28;20055;-73
2023/01/07 06:06:52;;;;;;;7.95;3.05;;;10.10;99.90;;;;;;5071924;28;20057;-73
2023/01/07 06:09:18;;;;;;;6.50;3.17;;;10.20;99.90;;;;;;5079330;28;20042;-72
2023/01/07 06:11:43;;;;;;;5.07;2.28;;;10.20;99.90;;;;;;5073733;28;20073;-72
2023/01/07 06:14:09;;;;;;;6.13;2.80;;;10.20;99.90;;;;;;5079435;28;20044;-73
2023/01/07 06:16:35;;;;;;;5.82;2.80;;;10.10;99.90;;;;;;5077140;28;20474;-73
2023/01/07 06:19:00;;;;;;;5.90;2.30;;;10.20;99.90;;;;;;5076039;28;20036;-73
2023/01/07 06:21:26;;;;;;;4.95;2.63;;;10.20;99.90;;;;;;5074386;28;20425;-72
2023/01/07 06:23:52;;;;;;;7.57;2.63;;;10.20;99.90;;;;;;5077604;28;20040;-73
2023/01/07 06:26:17;;;;;;;5.47;2.80;;;10.10;99.90;;;;;;5059531;28;20509;-72
2023/01/07 06:28:43;;;;;;;6.28;2.85;;;10.10;99.90;;;;;;5107384;27;20028;-72
2023/01/07 06:31:09;;;;;;;6.35;2.90;;;10.20;99.90;;;;;;5077029;28;20032;-73
2023/01/07 06:33:36;;;;;;;4.60;2.20;;;10.20;99.90;;;;;;5075311;28;20048;-73
2023/01/07 06:36:03;;;;;;;6.80;2.90;;;10.10;99.90;;;;;;5106035;27;20100;-72
2023/01/07 06:38:29;;;;;;;5.40;2.75;;;10.20;99.90;;;;;;5074447;28;20043;-72
2023/01/07 06:40:55;;;;;;;6.35;2.65;;;10.20;99.90;;;;;;5078024;28;20032;-72
2023/01/07 06:43:20;;;;;;;4.43;2.40;;;10.20;99.90;;;;;;5078686;28;20055;-73
2023/01/07 06:45:46;;;;;;;7.32;3.05;;;10.20;99.90;;;;;;5090019;28;20044;-73
2023/01/07 06:48:11;;;;;;;5.15;2.50;;;10.20;99.90;;;;;;5075808;28;20047;-73
2023/01/07 06:50:37;;;;;;;4.30;2.55;;;10.10;99.90;;;;;;5075411;28;20090;-73
2023/01/07 06:53:03;;;;;;;4.85;2.40;;;10.10;99.90;;;;;;5075858;28;20105;-73
2023/01/07 06:55:28;;;;;;;6.80;2.33;;;10.10;99.90;;;;;;5057495;28;20047;-73
2023/01/07 06:57:54;;;;;;;6.72;2.78;;;10.10;99.90;;;;;;5077971;28;20039;-72
2023/01/07 07:00:20;;;;;;;7.22;2.00;;;10.10;99.90;;;;;;5074682;28;20032;-73
2023/01/07 07:02:45;;;;;;;4.63;2.00;;;10.20;99.90;;;;;;5060241;28;20075;-72
2023/01/07 07:05:11;;;;;;;3.83;2.25;;;10.10;99.90;;;;;;5071364;28;20056;-73
2023/01/07 07:07:37;;;;;;;5.10;2.20;;;10.10;99.90;;;;;;5078110;28;20059;-73
2023/01/07 07:10:06;;;;;;;4.93;2.38;;;10.10;99.90;;;;;;5072903;28;20040;-73
2023/01/07 07:12:32;;;;;;;4.13;1.67;;;10.10;99.90;;;;;;5075681;28;20051;-73
2023/01/07 07:14:58;;;;;;;4.10;2.10;;;10.10;99.90;;;;;;5074429;28;20036;-73
2023/01/07 07:17:23;;;;;;;5.40;2.10;;;10.10;99.90;;;;;;5072401;28;20046;-73
2023/01/07 07:19:49;;;;;;;6.50;2.47;;;10.10;99.90;;;;;;5074776;28;20044;-73
2023/01/07 07:22:15;;;;;;;5.47;2.50;;;10.10;99.90;;;;;;5091220;28;20086;-73
2023/01/07 07:24:40;;;;;;;4.03;2.25;;;10.10;99.90;;;;;;5083116;28;20032;-73
2023/01/07 07:27:06;;;;;;;3.95;2.10;;;10.10;99.90;;;;;;5080171;28;20032;-73
2023/01/07 07:29:31;;;;;;;4.18;2.03;;;10.10;99.90;;;;;;5080800;28;20048;-73
2023/01/07 07:31:57;;;;;;;8.02;2.25;;;10.10;99.90;;;;;;5058653;28;20040;-73
2023/01/07 07:34:23;;;;;;;4.93;2.30;;;10.10;99.90;;;;;;5080829;28;20433;-73
2023/01/07 07:36:48;;;;;;;5.18;2.15;;;10.10;99.90;;;;;;5057822;28;20042;-79
2023/01/07 07:39:14;;;;;;;3.40;1.60;;;10.10;99.90;;;;;;5071621;28;20033;-71
2023/01/07 07:41:40;;;;;;;5.93;1.88;;;10.10;99.90;;;;;;5101422;27;20031;-73
2023/01/07 07:44:06;;;;;;;3.50;2.13;;;10.10;99.90;;;;;;5069972;28;20158;-72
2023/01/07 07:46:31;;;;;;;5.80;2.00;;;10.10;99.90;;;;;;5068732;28;20670;-73
2023/01/07 07:48:57;;;;;;;2.42;1.55;;;10.10;99.90;;;;;;5072233;28;20086;-72
2023/01/07 07:51:22;;;;;;;4.25;1.65;;;10.10;99.90;;;;;;5065009;28;20063;-73
2023/01/07 07:53:48;;;;;;;4.53;2.10;;;10.10;99.90;;;;;;5082504;28;20043;-72
2023/01/07 07:56:13;;;;;;;2.10;1.40;;;10.10;99.90;;;;;;5066569;28;20045;-73
2023/01/07 07:58:39;;;;;;;4.03;1.75;;;10.10;99.90;;;;;;5075844;28;20040;-73
2023/01/07 08:01:05;;;;;;;3.97;1.88;;;10.00;99.90;;;;;;5067609;28;20040;-73
2023/01/07 08:03:30;;;;;;;3.00;1.40;;;10.10;99.90;;;;;;5071119;28;20035;-73
2023/01/07 08:05:56;;;;;;;5.25;1.40;;;10.00;99.90;;;;;;5055097;28;20063;-73
2023/01/07 08:08:21;;;;;;;3.28;1.50;;;10.00;99.90;;;;;;5056074;28;20071;-73
2023/01/07 08:10:47;;;;;;;3.15;1.52;;;10.00;99.90;;;;;;5069256;28;20037;-73
2023/01/07 08:13:13;;;;;;;2.75;1.15;;;10.00;99.90;;;;;;5070989;28;20036;-73
2023/01/07 08:15:38;;;;;;;2.75;1.40;;;10.00;99.90;;;;;;5074355;28;20130;-73
2023/01/07 08:18:06;;;;;;;2.85;1.30;;;10.00;99.90;;;;;;5070021;28;20331;-73
2023/01/07 08:20:33;;;;;;;5.22;1.50;;;10.00;99.90;;;;;;5070910;28;20066;-73
2023/01/07 08:23:00;;;;;;;2.85;1.40;;;10.00;99.90;;;;;;5055405;28;20047;-77
2023/01/07 08:25:27;;;;;;;4.25;1.50;;;10.00;99.90;;;;;;5068466;28;20615;-73
2023/01/07 08:27:57;;;;;;;4.43;1.42;;;10.00;99.90;;;;;;5055837;28;20047;-73
2023/01/07 08:30:23;;;;;;;2.75;1.40;;;10.10;99.90;;;;;;5069991;28;20036;-73
2023/01/07 08:32:49;;;;;;;2.70;1.48;;;10.10;99.90;;;;;;5084182;28;20293;-72
2023/01/07 08:35:15;;;;;;;3.00;1.50;;;10.10;99.90;;;;;;5086169;28;20258;-73
2023/01/07 08:37:41;;;;;;;2.78;1.58;;;10.10;99.90;;;;;;5082439;28;20069;-73
2023/01/07 08:40:08;;;;;;;4.60;1.67;;;10.00;99.90;;;;;;5083195;28;20127;-73
2023/01/07 08:42:33;;;;;;;3.42;1.70;;;10.00;99.90;;;;;;5085654;28;20061;-72
2023/01/07 08:44:59;;;;;;;3.92;1.70;;;10.00;99.90;;;;;;5086973;28;20466;-72
2023/01/07 08:47:26;;;;;;;2.85;1.25;;;10.00;99.90;;;;;;5086101;28;20560;-72
2023/01/07 08:49:56;;;;;;;2.63;1.40;;;10.00;99.90;;;;;;5085531;28;20493;-72
2023/01/07 08:52:23;;;;;;;2.95;1.67;;;9.90;99.90;;;;;;5084371;28;20907;-72
2023/01/07 08:54:49;;;;;;;2.72;1.85;;;9.90;99.90;;;;;;5078861;28;20086;-72
2023/01/07 08:57:16;;;;;;;3.97;1.73;;;9.90;99.90;;;;;;5079304;28;20040;-72
2023/01/07 08:59:42;;;;;;;2.45;1.33;;;9.90;99.90;;;;;;5072564;28;20037;-72
2023/01/07 09:02:18;;;;;;;2.65;1.30;;;9.80;99.90;;;;;;5085112;28;20404;-72
2023/01/07 09:04:43;;;;;;;4.07;1.70;;;9.90;99.90;;;;;;5085654;28;20106;-72
2023/01/07 09:07:09;;;;;;;3.25;1.40;;;9.80;99.90;;;;;;5086528;28;20056;-72
2023/01/07 09:09:36;;;;;;;3.10;1.92;;;9.80;99.90;;;;;;5082168;28;20062;-72
2023/01/07 09:12:03;;;;;;;3.00;1.30;;;9.80;99.90;;;;;;5067933;28;20051;-73
2023/01/07 09:14:29;;;;;;;3.25;1.60;;;9.80;99.90;;;;;;5071135;28;20036;-72
2023/01/07 09:16:54;;;;;;;2.53;1.50;;;9.80;99.90;;;;;;5052536;28;20069;-73
2023/01/07 09:19:20;;;;;;;2.75;1.23;;;9.80;99.90;;;;;;5073067;28;20040;-72
2023/01/07 09:21:46;;;;;;;3.03;1.30;;;9.70;99.90;;;;;;5050489;28;20102;-73
2023/01/07 09:24:12;;;;;;;2.75;1.23;;;9.80;99.90;;;;;;5072083;28;20040;-73
2023/01/07 09:26:37;;;;;;;3.85;1.20;;;9.80;99.90;;;;;;5074324;28;20028;-73
2023/01/07 09:29:04;;;;;;;2.58;1.30;;;9.70;99.90;;;;;;5094204;28;20481;-73
2023/01/07 09:31:30;;;;;;;2.40;1.25;;;9.70;99.90;;;;;;5074509;28;20032;-73
2023/01/07 09:33:55;;;;;;;2.95;1.42;;;9.70;99.90;;;;;;5079410;28;20125;-73
2023/01/07 09:36:21;;;;;;;2.38;1.10;;;9.70;99.90;;;;;;5096212;28;20040;-73
2023/01/07 09:38:46;;;;;;;2.30;1.20;;;9.70;99.90;;;;;;5078383;28;20044;-73
2023/01/07 09:41:34;;;;;;;2.45;1.23;;;9.70;99.90;;;;;;5078458;28;20455;-73
2023/01/07 09:44:14;;;;;;;2.15;1.15;;;9.70;99.90;;;;;;5071665;28;20265;-72
2023/01/07 09:46:41;;;;;;;3.20;1.30;;;9.70;99.90;;;;;;5073863;28;20036;-72
2023/01/07 09:49:17;;;;;;;2.95;1.30;;;9.70;99.90;;;;;;5072681;28;20071;-73
2023/01/07 09:51:46;;;;;;;;;;;9.70;99.90;;;;;;5076027;28;20044;-72
2023/01/07 09:54:35;;;;;;;1.65;0.95;;;9.70;99.90;;;;;;5074619;28;19931;-72
2023/01/07 09:57:01;;;;;;;2.72;1.33;;;9.70;99.90;;;;;;5071711;28;20048;-72
2023/01/07 09:59:27;;;;;;;2.30;1.05;;;9.70;99.90;;;;;;5059206;28;20421;-73
2023/01/07 10:02:30;;;;;;;2.05;1.23;;;9.70;99.90;;;;;;5072859;28;20032;-72
2023/01/07 10:05:18;;;;;;;2.28;0.93;;;9.70;99.90;;;;;;5092895;27;20493;-72
2023/01/07 10:08:06;;;;;;;1.48;0.88;;;9.80;99.90;;;;;;5076397;28;20052;-73
2023/01/07 10:10:42;;;;;;;2.80;1.35;;;9.80;99.90;;;;;;5075822;28;20064;-72
2023/01/07 10:13:39;;;;;;;2.50;1.08;;;9.70;99.90;;;;;;5049166;28;20037;-72
2023/01/07 10:16:31;;;;;;;2.03;1.00;;;9.80;99.90;;;;;;5069170;28;20285;-72
2023/01/07 10:19:28;;;;;;;1.80;1.20;;;9.80;99.90;;;;;;5067141;28;20040;-73
2023/01/07 10:22:01;;;;;;;2.33;1.05;;;9.90;99.90;;;;;;5069939;28;20040;-73
2023/01/07 10:24:32;;;;;;;2.20;1.33;;;9.90;99.90;;;;;;5071057;28;20155;-72
2023/01/07 10:27:03;;;;;;;1.90;0.90;;;9.90;99.90;;;;;;5069418;28;20532;-73
2023/01/07 10:29:33;;;;;;;2.90;1.10;;;10.00;99.90;;;;;;5069159;28;20036;-72
2023/01/07 10:32:06;;;;;;;2.35;1.20;;;10.00;99.90;;;;;;5093979;27;20729;-72
2023/01/07 10:34:44;;;;;;;1.85;0.98;;;10.00;99.90;;;;;;5057924;28;20041;-72
2023/01/07 10:37:26;;;;;;;1.88;0.90;;;10.10;99.90;;;;;;5081179;28;20035;-72
2023/01/07 10:40:11;;;;;;;1.23;0.57;;;10.10;99.90;;;;;;5096090;27;20028;-73
2023/01/07 10:43:00;;;;;;;2.65;1.13;;;10.10;99.90;;;;;;5065763;28;20040;-72
2023/01/07 10:45:47;;;;;;;5.72;1.10;;;10.10;99.90;;;;;;5085752;28;20100;-72
2023/01/07 10:48:36;;;;;;;2.67;0.70;;;10.10;99.90;;;;;;5067070;28;20769;-72
2023/01/07 10:51:25;;;;;;;1.70;0.80;;;10.20;99.90;;;;;;5051375;28;20041;-72
2023/01/07 10:54:28;;;;;;;2.45;0.75;;;10.20;99.90;;;;;;5069289;28;20505;-72
2023/01/07 10:57:08;;;;;;;1.63;0.70;;;10.20;99.90;;;;;;5070722;28;20141;-72
2023/01/07 10:59:35;;;;;;;1.00;0.55;;;10.20;99.90;;;;;;5067719;28;20595;-72
2023/01/07 11:02:02;;;;;;;1.17;0.60;;;10.20;99.90;;;;;;5067606;28;20032;-72
2023/01/07 11:04:27;;;;;;;2.95;1.20;;;10.30;99.90;;;;;;5072603;28;20043;-73
2023/01/07 11:07:04;;;;;;;1.50;0.70;;;10.30;99.90;;;;;;5069467;28;20048;-72
2023/01/07 11:09:34;;;;;;;1.05;0.50;;;10.30;99.90;;;;;;5070482;28;20391;-72
2023/01/07 11:12:14;;;;;;;1.63;0.77;;;10.30;99.90;;;;;;5065343;28;20036;-73
2023/01/07 11:14:41;;;;;;;2.15;0.88;;;10.30;99.90;;;;;;5038836;28;20072;-72
2023/01/07 11:17:24;;;;;;;2.53;0.70;;;10.30;99.90;;;;;;5066209;28;20352;-72
2023/01/07 11:19:53;;;;;;;2.45;0.73;;;10.30;99.90;;;;;;5059575;28;20584;-73
2023/01/07 11:22:29;;;;;;;2.30;0.55;;;10.40;99.90;;;;;;5065339;28;20124;-73
2023/01/07 11:24:57;;;;;;;1.05;0.55;;;10.40;99.90;;;;;;5067365;28;20040;-73
2023/01/07 11:27:25;;;;;;;1.10;0.57;;;10.40;99.90;;;;;;5072844;28;20655;-73
2023/01/07 11:29:56;;;;;;;1.42;0.68;;;10.40;99.90;;;;;;5054147;28;20040;-73
2023/01/07 11:32:25;;;;;;;1.33;0.65;;;10.40;99.90;;;;;;5054445;28;20153;-73
2023/01/07 11:35:00;;;;;;;1.13;0.60;;;10.50;99.90;;;;;;5059789;28;20066;-73
2023/01/07 11:37:38;;;;;;;1.27;0.65;;;10.40;99.90;;;;;;5050542;28;20028;-73
2023/01/07 11:40:25;;;;;;;2.20;0.85;;;10.40;99.90;;;;;;5073613;28;20410;-73
2023/01/07 11:43:00;;;;;;;0.73;0.50;;;10.40;99.90;;;;;;5058717;28;20032;-73
2023/01/07 11:45:34;;;;;;;1.38;0.90;;;10.40;99.90;;;;;;5071183;28;20083;-73
2023/01/07 11:48:26;;;;;;;1.17;0.68;;;10.40;99.90;;;;;;5068012;28;20040;-72
2023/01/07 11:50:52;;;;;;;0.98;0.50;;;10.40;99.90;;;;;;5068382;28;20055;-73
2023/01/07 11:53:17;;;;;;;1.35;0.65;;;10.40;99.90;;;;;;5056802;28;20039;-72
2023/01/07 11:56:05;;;;;;;0.80;0.50;;;10.40;99.90;;;;;;5048173;28;20059;-73
2023/01/07 11:58:37;;;;;;;1.35;0.70;;;10.40;99.90;;;;;;5058360;28;20047;-72
2023/01/07 12:01:08;;;;;;;0.93;0.50;;;10.40;99.90;;;;;;5050337;28;20051;-72
2023/01/07 12:03:41;;;;;;;1.02;0.55;;;10.40;99.90;;;;;;5068728;28;20044;-72
2023/01/07 12:06:10;;;;;;;2.05;0.70;;;10.50;99.90;;;;;;5066561;28;20067;-72
2023/01/07 12:08:41;;;;;;;1.60;0.70;;;10.50;99.90;;;;;;5053129;28;20094;-72
2023/01/07 12:11:10;;;;;;;1.60;0.60;;;10.50;99.90;;;;;;5064361;28;20088;-72
2023/01/07 12:13:39;;;;;;;1.45;0.75;;;10.50;99.90;;;;;;5058036;28;20534;-72
2023/01/07 12:16:06;;;;;;;2.53;0.95;;;10.50;99.90;;;;;;5071303;28;20075;-72
2023/01/07 12:19:07;;;;;;;1.20;0.70;;;10.50;99.90;;;;;;5068670;28;20059;-72
2023/01/07 12:21:50;;;;;;;0.88;0.35;;;10.50;99.90;;;;;;5059666;28;20159;-72
2023/01/07 12:24:28;;;;;;;1.08;0.50;;;10.50;99.90;;;;;;5068160;28;20051;-72
2023/01/07 12:27:44;;;;;;;1.17;0.57;;;10.50;99.90;;;;;;5065455;28;20080;-73
2023/01/07 12:30:44;;;;;;;1.25;0.60;;;10.50;99.90;;;;;;5054308;28;20494;-72
2023/01/07 12:33:16;;;;;;;1.67;0.70;;;10.60;99.90;;;;;;5060570;28;20040;-73
2023/01/07 12:35:43;;;;;;;1.80;0.88;;;10.50;99.90;;;;;;5069507;28;20620;-72
2023/01/07 12:38:24;;;;;;;0.75;0.45;;;10.50;99.90;;;;;;5065161;28;20052;-73
2023/01/07 12:41:09;;;;;;;1.02;0.50;;;10.50;99.90;;;;;;5069459;28;20047;-72
2023/01/07 12:44:03;;;;;;;1.10;0.38;;;10.50;99.90;;;;;;5068013;28;20048;-72
2023/01/07 12:46:40;;;;;;;1.50;0.50;;;10.40;99.90;;;;;;5070392;28;20043;-72
2023/01/07 12:49:44;;;;;;;1.52;0.60;;;10.40;99.90;;;;;;5056798;28;20090;-72
2023/01/07 12:52:27;;;;;;;0.63;0.43;;;10.40;99.90;;;;;;5074421;28;20044;-72
2023/01/07 12:54:56;;;;;;;1.08;0.63;;;10.50;99.90;;;;;;5071867;28;20077;-73
2023/01/07 12:57:33;;;;;;;1.52;0.73;;;10.50;99.90;;;;;;5065713;28;20048;-72
2023/01/07 13:00:20;;;;;;;1.42;0.57;;;10.50;99.90;;;;;;5072503;28;20568;-73
2023/01/07 13:03:02;;;;;;;2.28;0.40;;;10.50;99.90;;;;;;5063532;28;20037;-72
2023/01/07 13:05:58;;;;;;;0.90;0.55;;;10.40;99.90;;;;;;5068328;28;20123;-72
2023/01/07 13:09:00;;;;;;;2.95;0.60;;;10.50;99.90;;;;;;5074419;28;20125;-73
2023/01/07 13:14:37;;;;;;;2.67;0.60;;;10.50;99.90;;;;;;5074309;28;20673;-73